Time;durP1;ratioP1;P1;durP2;ratioP2;P2;SDS_P1;SDS_P2;PMS_P1;PMS_P2;Temp;Humidity;BMP_temperature;BMP_pressure;BME280_temperature;BME280_humidity;BME280_pressure;Samples;Min_cycle;Max_cycle;Signal;HPM_P1;HPM_P2
2023/08/16 00:02:14;;;;;;;10.47;6.17;;;21.20;1.00;;;;;;5001581;28;20197;-73
2023/08/16 00:04:39;;;;;;;11.40;6.10;;;21.10;1.00;;;;;;5009717;28;20193;-73
2023/08/16 00:07:05;;;;;;;6.93;5.43;;;21.00;1.00;;;;;;5007605;28;20204;-73
2023/08/16 00:09:30;;;;;;;11.13;5.60;;;21.00;1.00;;;;;;5008043;28;20186;-73
2023/08/16 00:11:56;;;;;;;6.00;5.33;;;21.10;1.00;;;;;;5009625;28;20217;-74
2023/08/16 00:14:22;;;;;;;9.90;5.60;;;21.10;1.00;;;;;;5009506;28;20263;-73
2023/08/16 00:16:48;;;;;;;7.80;6.00;;;21.10;1.00;;;;;;5009435;28;20236;-74
2023/08/16 00:19:14;;;;;;;12.60;5.70;;;21.10;1.00;;;;;;5008940;28;20907;-73
2023/08/16 00:21:40;;;;;;;7.03;5.20;;;21.00;1.00;;;;;;5004661;28;20689;-73
2023/08/16 00:24:06;;;;;;;9.37;6.10;;;21.10;1.00;;;;;;5007596;28;20429;-73
2023/08/16 00:26:32;;;;;;;9.63;5.67;;;21.10;1.00;;;;;;5009059;28;20189;-73
2023/08/16 00:28:57;;;;;;;8.60;5.57;;;21.10;1.00;;;;;;5008592;28;20429;-73
2023/08/16 00:31:23;;;;;;;7.00;5.10;;;21.20;1.00;;;;;;5007674;28;20197;-73
2023/08/16 00:33:49;;;;;;;7.30;5.30;;;21.10;1.00;;;;;;5009251;28;20256;-73
2023/08/16 00:36:15;;;;;;;10.23;5.57;;;21.20;1.00;;;;;;5008874;28;20186;-74
2023/08/16 00:38:43;;;;;;;6.27;5.40;;;21.40;1.00;;;;;;5003833;28;20191;-73
2023/08/16 00:41:12;;;;;;;11.73;5.60;;;21.10;1.00;;;;;;5007465;28;20281;-73
2023/08/16 00:43:38;;;;;;;8.93;5.73;;;21.10;1.00;;;;;;5005871;28;20436;-73
2023/08/16 00:46:07;;;;;;;7.27;5.70;;;21.10;1.00;;;;;;5007312;28;20536;-74
2023/08/16 00:48:33;;;;;;;10.70;6.07;;;21.10;1.00;;;;;;5013936;28;20433;-74
2023/08/16 00:50:59;;;;;;;9.33;5.80;;;21.10;1.00;;;;;;5006449;28;20449;-74
2023/08/16 00:53:29;;;;;;;10.23;5.83;;;21.20;1.00;;;;;;5005311;28;20906;-73
2023/08/16 00:55:55;;;;;;;7.37;5.77;;;21.20;1.00;;;;;;5005333;28;20210;-73
2023/08/16 00:58:22;;;;;;;8.13;6.40;;;21.30;1.00;;;;;;5006887;28;20538;-73
2023/08/16 01:00:48;;;;;;;8.17;5.90;;;21.30;1.00;;;;;;5006768;28;20236;-73
2023/08/16 01:03:13;;;;;;;9.97;5.70;;;21.90;1.00;;;;;;5002656;28;20967;-73
2023/08/16 01:05:39;;;;;;;9.23;6.30;;;21.30;1.00;;;;;;5008594;28;20452;-73
2023/08/16 01:08:05;;;;;;;9.17;5.90;;;21.10;1.00;;;;;;5008547;28;20197;-73
2023/08/16 01:11:08;;;;;;;6.50;5.63;;;21.00;1.00;;;;;;5007181;28;20599;-73
2023/08/16 01:13:43;;;;;;;9.90;6.20;;;21.00;1.00;;;;;;5007839;28;20591;-74
2023/08/16 01:16:09;;;;;;;9.20;6.60;;;20.80;1.00;;;;;;5007103;28;20467;-74
2023/08/16 01:18:41;;;;;;;10.97;6.03;;;20.70;1.00;;;;;;5007337;28;20444;-74
2023/08/16 01:21:09;;;;;;;7.80;6.30;;;20.50;1.00;;;;;;5007694;28;20461;-74
2023/08/16 01:24:03;;;;;;;8.23;6.80;;;20.50;1.00;;;;;;5010793;28;20499;-74
2023/08/16 01:26:34;;;;;;;8.33;6.93;;;20.40;1.00;;;;;;5001769;28;20536;-74
2023/08/16 01:29:01;;;;;;;9.53;6.40;;;20.30;1.00;;;;;;5010031;28;20911;-74
2023/08/16 01:31:27;;;;;;;11.57;7.13;;;20.20;1.00;;;;;;5011812;28;20536;-74
2023/08/16 01:33:53;;;;;;;9.07;6.93;;;20.30;1.00;;;;;;5011829;28;20556;-74
2023/08/16 01:36:18;;;;;;;10.00;6.30;;;20.30;1.00;;;;;;5011806;28;20182;-74
2023/08/16 01:38:45;;;;;;;11.13;6.47;;;20.30;1.00;;;;;;5011408;28;20189;-74
2023/08/16 01:41:23;;;;;;;9.63;6.60;;;20.30;1.00;;;;;;5011045;28;20593;-74
2023/08/16 01:43:49;;;;;;;14.90;7.07;;;20.30;1.00;;;;;;5011583;28;20440;-74
2023/08/16 01:46:16;;;;;;;8.20;6.47;;;20.20;1.00;;;;;;5011170;28;20814;-74
2023/08/16 01:48:43;;;;;;;7.80;6.47;;;20.30;1.00;;;;;;5011644;28;20463;-74
2023/08/16 01:51:08;;;;;;;12.70;6.20;;;20.20;1.00;;;;;;5010524;28;20532;-75
2023/08/16 01:53:36;;;;;;;10.07;6.90;;;20.20;1.00;;;;;;5006884;28;20552;-75
2023/08/16 01:56:01;;;;;;;8.17;6.50;;;20.10;1.00;;;;;;5009370;28;20187;-75
2023/08/16 01:58:27;;;;;;;9.50;6.47;;;20.10;1.00;;;;;;5010039;28;21001;-75
2023/08/16 02:00:52;;;;;;;11.20;6.80;;;20.20;1.00;;;;;;5007776;28;20190;-74
2023/08/16 02:03:18;;;;;;;8.20;6.60;;;20.30;1.00;;;;;;5007728;28;20276;-75
2023/08/16 02:05:43;;;;;;;9.03;7.17;;;20.30;1.00;;;;;;5009908;28;20656;-75
2023/08/16 02:08:10;;;;;;;9.20;7.13;;;20.30;1.00;;;;;;5008377;28;20233;-75
2023/08/16 02:10:36;;;;;;;9.30;7.10;;;20.30;1.00;;;;;;5010043;28;20186;-75
2023/08/16 02:13:03;;;;;;;10.40;7.27;;;22.30;1.00;;;;;;5008449;28;20495;-74
2023/08/16 02:15:28;;;;;;;9.60;6.80;;;20.10;1.00;;;;;;5009950;28;20469;-75
2023/08/16 02:17:54;;;;;;;14.63;7.60;;;20.10;1.00;;;;;;5008160;28;20436;-75
2023/08/16 02:20:20;;;;;;;9.73;6.77;;;20.20;1.00;;;;;;5007761;28;20616;-75
2023/08/16 02:22:45;;;;;;;8.50;7.07;;;20.20;1.00;;;;;;5008317;28;20569;-75
2023/08/16 02:25:13;;;;;;;8.13;6.73;;;20.30;1.00;;;;;;5005152;28;20535;-75
2023/08/16 02:27:40;;;;;;;8.40;7.07;;;20.10;1.00;;;;;;5007421;28;20201;-75
2023/08/16 02:30:06;;;;;;;10.00;6.63;;;20.30;1.00;;;;;;5008306;28;20441;-75
2023/08/16 02:32:33;;;;;;;7.80;6.60;;;20.30;1.00;;;;;;5008097;28;20558;-75
2023/08/16 02:34:59;;;;;;;9.57;6.23;;;20.30;1.00;;;;;;5009549;28;20547;-75
2023/08/16 02:37:25;;;;;;;7.13;6.43;;;20.20;1.00;;;;;;5007771;28;20437;-75
2023/08/16 02:39:51;;;;;;;8.93;6.87;;;20.20;1.00;;;;;;5007932;28;20508;-75
2023/08/16 02:42:17;;;;;;;10.27;7.37;;;20.20;1.00;;;;;;5007230;28;20453;-75
2023/08/16 02:44:43;;;;;;;8.90;6.70;;;20.20;1.00;;;;;;5009355;28;20437;-75
2023/08/16 02:47:08;;;;;;;12.50;7.43;;;20.20;1.00;;;;;;5006768;28;20189;-74
2023/08/16 02:49:34;;;;;;;8.87;7.27;;;20.30;1.00;;;;;;5008402;28;20198;-74
2023/08/16 02:51:59;;;;;;;13.20;7.17;;;20.30;1.00;;;;;;5008096;28;20210;-75
2023/08/16 02:54:25;;;;;;;9.73;6.60;;;20.30;1.00;;;;;;5007548;28;20608;-75
2023/08/16 02:56:50;;;;;;;8.40;6.30;;;20.30;1.00;;;;;;5008726;28;20267;-75
2023/08/16 02:59:16;;;;;;;10.53;6.13;;;20.30;1.00;;;;;;5008464;28;20185;-75
2023/08/16 03:01:41;;;;;;;12.77;6.37;;;20.30;1.00;;;;;;5007077;28;20723;-76
2023/08/16 03:04:07;;;;;;;9.77;7.97;;;20.20;1.00;;;;;;5008855;28;20190;-75
2023/08/16 03:06:33;;;;;;;9.70;7.23;;;20.10;1.00;;;;;;5006152;28;20210;-74
2023/08/16 03:09:00;;;;;;;16.43;7.60;;;20.10;1.00;;;;;;5005840;28;20972;-75
2023/08/16 03:11:25;;;;;;;11.27;7.53;;;20.10;1.00;;;;;;5006116;28;20286;-74
2023/08/16 03:13:51;;;;;;;8.93;7.57;;;22.30;1.00;;;;;;5007280;28;20568;-74
2023/08/16 03:16:16;;;;;;;10.80;8.37;;;20.10;1.00;;;;;;5007937;28;20190;-75
2023/08/16 03:18:42;;;;;;;11.00;8.00;;;20.10;1.00;;;;;;5012442;28;20190;-75
2023/08/16 03:21:07;;;;;;;10.70;8.60;;;20.10;1.00;;;;;;5011480;28;20625;-73
2023/08/16 03:23:33;;;;;;;10.43;7.30;;;20.10;1.00;;;;;;5008473;28;20183;-75
2023/08/16 03:25:58;;;;;;;10.50;7.90;;;20.20;1.00;;;;;;5008942;28;20196;-75
2023/08/16 03:28:24;;;;;;;9.03;7.70;;;20.10;1.00;;;;;;5008988;28;20218;-75
2023/08/16 03:30:49;;;;;;;9.43;7.17;;;22.30;1.00;;;;;;5009420;28;20186;-75
2023/08/16 03:33:15;;;;;;;8.50;7.17;;;20.10;1.00;;;;;;5010020;28;20264;-75
2023/08/16 03:35:40;;;;;;;12.93;7.20;;;20.10;1.00;;;;;;5009304;28;20576;-75
2023/08/16 03:38:06;;;;;;;16.30;7.30;;;20.00;1.00;;;;;;5009563;28;20175;-75
2023/08/16 03:40:31;;;;;;;10.27;6.43;;;19.80;1.00;;;;;;5001096;28;20174;-75
2023/08/16 03:42:57;;;;;;;10.17;7.00;;;19.80;1.00;;;;;;5008757;28;20272;-74
2023/08/16 03:45:25;;;;;;;14.00;7.50;;;19.80;1.00;;;;;;5007849;28;20314;-75
2023/08/16 03:47:52;;;;;;;10.50;8.20;;;19.70;1.00;;;;;;5008931;28;20372;-74
2023/08/16 03:50:17;;;;;;;13.23;8.07;;;19.70;1.00;;;;;;5006838;28;20555;-75
2023/08/16 03:52:43;;;;;;;10.70;8.27;;;19.80;1.00;;;;;;5009155;28;20449;-75
2023/08/16 03:55:09;;;;;;;14.60;8.80;;;19.80;1.00;;;;;;5009344;28;20643;-75
2023/08/16 03:57:34;;;;;;;16.20;9.50;;;19.90;1.00;;;;;;5008555;28;20186;-75
2023/08/16 04:00:00;;;;;;;17.67;8.70;;;19.90;1.00;;;;;;5009003;28;20649;-76
2023/08/16 04:02:25;;;;;;;13.23;8.37;;;19.90;1.00;;;;;;5008126;28;20202;-75
2023/08/16 04:04:53;;;;;;;10.97;8.63;;;19.90;1.00;;;;;;5009105;28;20293;-74
2023/08/16 04:07:18;;;;;;;12.23;8.67;;;19.90;1.00;;;;;;5008555;28;20183;-75
2023/08/16 04:09:44;;;;;;;12.03;9.13;;;19.80;1.00;;;;;;5010794;28;20511;-75
2023/08/16 04:12:09;;;;;;;10.50;9.00;;;19.90;1.00;;;;;;5011148;28;20221;-75
2023/08/16 04:14:35;;;;;;;18.97;10.00;;;19.90;1.00;;;;;;5008756;28;20211;-75
2023/08/16 04:17:00;;;;;;;12.17;9.23;;;20.10;1.00;;;;;;5005658;28;20189;-75
2023/08/16 04:19:26;;;;;;;10.40;8.20;;;20.10;1.00;;;;;;5011236;28;20179;-76
2023/08/16 04:21:52;;;;;;;15.90;9.63;;;20.10;1.00;;;;;;5009043;28;20672;-75
2023/08/16 04:24:17;;;;;;;10.90;8.40;;;20.30;1.00;;;;;;5015410;28;20179;-75
2023/08/16 04:26:43;;;;;;;11.30;8.90;;;20.30;1.00;;;;;;5007382;28;20198;-74
2023/08/16 04:29:09;;;;;;;13.43;8.63;;;20.40;1.00;;;;;;5008816;28;20549;-75
2023/08/16 04:31:35;;;;;;;12.43;9.00;;;20.50;1.00;;;;;;5008502;28;20449;-75
2023/08/16 04:34:00;;;;;;;11.00;8.50;;;20.60;1.00;;;;;;5008578;28;20271;-75
2023/08/16 04:36:26;;;;;;;12.50;8.60;;;20.60;1.00;;;;;;5009709;28;20186;-75
2023/08/16 04:38:51;;;;;;;12.13;8.97;;;20.70;1.00;;;;;;5007049;28;20611;-74
2023/08/16 04:41:17;;;;;;;10.17;8.23;;;20.80;1.00;;;;;;5008288;28;20182;-75
2023/08/16 04:43:42;;;;;;;10.30;7.90;;;20.80;1.00;;;;;;5008599;28;20194;-75
2023/08/16 04:46:08;;;;;;;14.07;9.20;;;20.90;1.00;;;;;;5008664;28;20556;-76
2023/08/16 04:48:33;;;;;;;14.20;9.03;;;20.90;1.00;;;;;;5007933;28;20241;-75
2023/08/16 04:50:59;;;;;;;11.00;9.00;;;20.90;1.00;;;;;;5008556;28;20178;-75
2023/08/16 04:53:24;;;;;;;11.47;9.43;;;20.90;1.00;;;;;;5008015;28;20689;-76
2023/08/16 04:55:50;;;;;;;11.63;9.00;;;20.90;1.00;;;;;;5008056;28;20584;-75
2023/08/16 04:58:15;;;;;;;12.17;9.30;;;20.80;1.00;;;;;;5006414;28;20178;-75
2023/08/16 05:00:41;;;;;;;15.40;9.07;;;20.80;1.00;;;;;;5000462;28;20587;-74
2023/08/16 05:03:07;;;;;;;11.73;8.97;;;20.80;1.00;;;;;;5009643;28;20221;-75
2023/08/16 05:05:32;;;;;;;11.77;9.10;;;20.80;1.00;;;;;;5011666;28;20178;-75
2023/08/16 05:07:58;;;;;;;10.83;8.57;;;22.00;1.00;;;;;;5007999;28;20178;-75
2023/08/16 05:10:23;;;;;;;13.43;9.80;;;20.90;1.00;;;;;;5011778;28;20216;-75
2023/08/16 05:12:49;;;;;;;13.10;9.67;;;20.90;1.00;;;;;;5013406;28;20214;-74
2023/08/16 05:15:14;;;;;;;14.23;10.63;;;21.00;1.00;;;;;;5011988;28;20205;-75
2023/08/16 05:17:40;;;;;;;14.20;10.40;;;20.90;1.00;;;;;;5011347;28;20189;-74
2023/08/16 05:20:06;;;;;;;14.83;11.13;;;20.80;1.00;;;;;;5011951;28;20205;-75
2023/08/16 05:22:32;;;;;;;13.20;10.50;;;20.70;1.00;;;;;;5010219;28;20205;-74
2023/08/16 05:24:58;;;;;;;13.50;11.27;;;20.70;1.00;;;;;;5008948;28;20437;-76
2023/08/16 05:27:23;;;;;;;19.80;11.43;;;20.70;1.00;;;;;;5009933;28;20537;-75
2023/08/16 05:29:49;;;;;;;17.50;10.03;;;20.80;1.00;;;;;;5008544;28;20324;-75
2023/08/16 05:32:14;;;;;;;14.13;10.53;;;21.00;1.00;;;;;;5007417;28;20225;-75
2023/08/16 05:34:40;;;;;;;14.10;10.17;;;21.10;1.00;;;;;;5010207;28;20253;-74
2023/08/16 05:37:06;;;;;;;21.23;10.27;;;21.20;1.00;;;;;;5010801;28;20285;-75
2023/08/16 05:39:32;;;;;;;15.43;10.90;;;21.10;1.00;;;;;;5014158;28;20178;-74
2023/08/16 05:41:57;;;;;;;14.13;10.80;;;21.20;1.00;;;;;;5011126;28;20819;-75
2023/08/16 05:44:23;;;;;;;13.37;10.40;;;21.30;1.00;;;;;;5011237;28;20190;-75
2023/08/16 05:46:48;;;;;;;12.63;9.90;;;21.40;1.00;;;;;;5011906;28;20182;-75
2023/08/16 05:49:14;;;;;;;15.37;9.90;;;21.50;1.00;;;;;;5011912;28;20182;-75
2023/08/16 05:51:39;;;;;;;11.93;9.30;;;22.20;1.00;;;;;;5014518;28;20209;-75
2023/08/16 05:54:05;;;;;;;12.53;9.57;;;21.70;1.00;;;;;;5011949;28;20703;-74
2023/08/16 05:56:30;;;;;;;14.97;9.97;;;21.80;1.00;;;;;;5011147;28;20178;-75
2023/08/16 05:58:56;;;;;;;11.73;10.50;;;21.80;1.00;;;;;;5011642;28;20552;-75
2023/08/16 06:01:22;;;;;;;12.83;10.10;;;21.70;1.00;;;;;;5010040;28;20215;-75
2023/08/16 06:03:47;;;;;;;12.67;9.30;;;21.70;1.00;;;;;;5011599;28;20648;-75
2023/08/16 06:06:13;;;;;;;14.00;10.00;;;21.80;1.00;;;;;;5012007;28;20280;-75
2023/08/16 06:08:38;;;;;;;14.00;10.73;;;21.80;1.00;;;;;;5011536;28;20679;-75
2023/08/16 06:11:04;;;;;;;15.63;10.10;;;21.70;1.00;;;;;;5010169;28;20270;-74
2023/08/16 06:13:30;;;;;;;12.40;10.67;;;21.70;1.00;;;;;;5006884;28;20672;-74
2023/08/16 06:15:56;;;;;;;15.23;10.10;;;21.70;1.00;;;;;;5008597;28;20471;-74
2023/08/16 06:18:21;;;;;;;16.00;10.30;;;21.80;1.00;;;;;;5010184;28;20190;-74
2023/08/16 06:20:47;;;;;;;15.40;10.63;;;21.90;1.00;;;;;;5008193;28;20217;-75
2023/08/16 06:23:12;;;;;;;15.20;11.20;;;22.00;1.00;;;;;;5010216;28;20234;-74
2023/08/16 06:25:38;;;;;;;13.20;10.37;;;22.00;1.00;;;;;;5002946;28;20232;-74
2023/08/16 06:28:04;;;;;;;15.47;10.00;;;22.20;1.00;;;;;;5001693;28;20193;-74
2023/08/16 06:30:29;;;;;;;11.93;9.80;;;22.40;1.00;;;;;;5008825;28;20269;-74
2023/08/16 06:32:55;;;;;;;11.80;8.77;;;22.70;1.00;;;;;;5005413;28;20216;-74
2023/08/16 06:35:20;;;;;;;14.43;8.70;;;22.80;1.00;;;;;;5004744;28;20216;-74
2023/08/16 06:37:46;;;;;;;11.97;9.00;;;22.80;1.00;;;;;;5007277;28;20174;-74
2023/08/16 06:40:12;;;;;;;10.83;8.73;;;22.90;1.00;;;;;;5005574;28;20244;-74
2023/08/16 06:42:41;;;;;;;12.40;8.80;;;22.90;1.00;;;;;;5008466;28;20201;-74
2023/08/16 06:45:08;;;;;;;12.00;8.50;;;22.80;1.00;;;;;;5006692;28;20445;-74
2023/08/16 06:47:33;;;;;;;11.93;9.23;;;22.80;1.00;;;;;;5009364;28;21027;-74
2023/08/16 06:49:59;;;;;;;17.87;8.97;;;22.60;1.00;;;;;;5004322;28;20433;-74
2023/08/16 06:52:24;;;;;;;10.80;8.53;;;22.60;1.00;;;;;;5009029;28;20198;-74
2023/08/16 06:54:50;;;;;;;10.27;7.90;;;22.60;1.00;;;;;;5006288;28;20676;-74
2023/08/16 06:57:15;;;;;;;12.47;7.60;;;22.70;1.00;;;;;;5008811;28;20189;-74
2023/08/16 06:59:41;;;;;;;10.70;7.40;;;23.30;1.00;;;;;;5001082;28;20206;-74
2023/08/16 07:02:10;;;;;;;12.43;6.90;;;23.00;1.00;;;;;;5006662;28;20201;-74
2023/08/16 07:04:37;;;;;;;9.07;7.43;;;23.20;1.00;;;;;;5007244;28;20550;-74
2023/08/16 07:07:03;;;;;;;11.13;7.30;;;23.40;1.00;;;;;;5004712;28;20440;-74
2023/08/16 07:09:29;;;;;;;11.03;7.17;;;23.60;1.00;;;;;;5006225;28;20974;-74
2023/08/16 07:11:55;;;;;;;9.33;6.30;;;23.70;1.00;;;;;;5008008;28;20212;-74
2023/08/16 07:14:21;;;;;;;8.23;5.60;;;23.80;1.00;;;;;;5009563;28;20205;-74
2023/08/16 07:16:46;;;;;;;9.30;5.53;;;23.70;1.00;;;;;;5006702;28;20445;-74
2023/08/16 07:19:12;;;;;;;9.60;5.60;;;23.90;1.00;;;;;;5008849;28;20591;-74
2023/08/16 07:21:37;;;;;;;11.07;5.87;;;24.20;1.00;;;;;;5006439;28;20284;-76
2023/08/16 07:24:03;;;;;;;6.60;5.20;;;24.50;1.00;;;;;;5010594;28;20223;-73
2023/08/16 07:26:29;;;;;;;7.07;5.17;;;24.80;1.00;;;;;;5009573;28;20185;-73
2023/08/16 07:28:54;;;;;;;7.07;5.20;;;25.10;1.00;;;;;;5008409;28;20236;-73
2023/08/16 07:31:20;;;;;;;8.17;5.30;;;25.60;1.00;;;;;;5008645;28;20190;-73
2023/08/16 07:33:45;;;;;;;6.00;5.10;;;25.60;1.00;;;;;;5009833;28;20189;-73
2023/08/16 07:36:11;;;;;;;10.37;5.23;;;25.90;1.00;;;;;;5010342;28;20186;-73
2023/08/16 07:38:36;;;;;;;6.83;5.00;;;26.00;1.00;;;;;;5006824;28;20189;-74
2023/08/16 07:41:02;;;;;;;13.87;5.80;;;26.00;1.00;;;;;;5009785;28;20190;-73
2023/08/16 07:43:30;;;;;;;6.50;4.80;;;26.10;1.00;;;;;;5016544;28;20200;-74
2023/08/16 07:45:56;;;;;;;6.50;4.80;;;26.30;1.00;;;;;;5003528;28;20198;-73
2023/08/16 07:48:21;;;;;;;8.60;4.50;;;26.20;1.00;;;;;;4999072;28;20955;-73
2023/08/16 07:50:48;;;;;;;6.70;4.80;;;26.40;1.00;;;;;;5042251;22;20233;-79
2023/08/16 07:53:14;;;;;;;7.07;4.87;;;26.50;1.00;;;;;;5035461;28;20177;-75
2023/08/16 07:55:39;;;;;;;6.07;5.27;;;26.80;1.00;;;;;;5021477;28;20875;-74
2023/08/16 07:58:05;;;;;;;6.03;4.40;;;27.00;1.00;;;;;;5029136;28;20260;-76
2023/08/16 08:00:31;;;;;;;6.23;4.60;;;27.20;1.00;;;;;;5026863;28;20205;-76
2023/08/16 08:02:57;;;;;;;8.23;4.90;;;27.60;1.00;;;;;;5027536;28;20575;-78
2023/08/16 08:05:22;;;;;;;7.20;4.80;;;28.20;1.00;;;;;;5029245;28;20208;-74
2023/08/16 08:07:48;;;;;;;7.33;4.40;;;29.10;1.00;;;;;;5031136;28;20189;-76
2023/08/16 08:10:15;;;;;;;10.10;5.10;;;30.20;1.00;;;;;;5028678;28;20225;-77
2023/08/16 08:12:45;;;;;;;5.30;4.10;;;31.10;1.00;;;;;;5029946;28;20184;-76
2023/08/16 08:15:11;;;;;;;6.45;4.20;;;31.90;1.00;;;;;;5025453;28;20210;-76
2023/08/16 08:17:36;;;;;;;6.22;3.90;;;32.80;1.00;;;;;;5029730;28;20247;-76
2023/08/16 08:20:04;;;;;;;5.93;4.00;;;33.10;1.00;;;;;;5031027;28;20201;-77
2023/08/16 08:22:29;;;;;;;5.25;3.75;;;34.00;1.00;;;;;;5029175;28;20184;-75
2023/08/16 08:24:55;;;;;;;5.65;3.38;;;;;;;;;;5027432;28;20200;-74
2023/08/16 08:27:21;;;;;;;5.03;3.30;;;35.60;1.00;;;;;;5026181;28;20757;-74
2023/08/16 08:29:46;;;;;;;4.47;3.50;;;36.20;1.00;;;;;;5024700;28;20205;-75
2023/08/16 08:32:12;;;;;;;7.75;3.40;;;36.10;1.00;;;;;;5027750;28;20238;-74
2023/08/16 08:34:38;;;;;;;4.78;3.67;;;35.70;1.00;;;;;;5028434;28;20208;-75
2023/08/16 08:37:04;;;;;;;6.10;3.78;;;35.10;1.00;;;;;;5030665;28;21452;-73
2023/08/16 08:39:31;;;;;;;7.00;3.60;;;32.80;1.00;;;;;;5034692;28;20319;-75
2023/08/16 08:41:57;;;;;;;9.85;4.38;;;32.70;1.00;;;;;;5036410;28;20652;-74
2023/08/16 08:44:24;;;;;;;4.82;3.40;;;31.70;1.00;;;;;;5036261;28;20196;-76
2023/08/16 08:46:51;;;;;;;5.95;3.78;;;31.00;1.00;;;;;;5032145;28;20181;-74
2023/08/16 08:49:22;;;;;;;8.35;3.90;;;30.60;1.00;;;;;;5034131;28;20213;-74
2023/08/16 08:51:49;;;;;;;5.88;3.72;;;30.50;1.00;;;;;;5033363;28;20292;-75
2023/08/16 08:54:14;;;;;;;6.55;3.80;;;30.70;1.00;;;;;;5033267;28;20223;-73
2023/08/16 08:56:40;;;;;;;7.07;4.15;;;31.20;1.00;;;;;;5033662;28;20185;-74
2023/08/16 08:59:07;;;;;;;7.45;3.90;;;32.30;1.00;;;;;;5032932;28;20203;-76
2023/08/16 09:01:34;;;;;;;5.50;4.13;;;33.00;1.00;;;;;;5033065;28;20535;-77
2023/08/16 09:04:02;;;;;;;5.38;3.53;;;33.90;1.00;;;;;;5033104;28;20212;-77
2023/08/16 09:06:28;;;;;;;7.57;3.75;;;34.00;1.00;;;;;;5036144;28;20173;-77
2023/08/16 09:08:56;;;;;;;5.53;3.65;;;33.70;1.00;;;;;;5033087;28;20181;-77
2023/08/16 09:11:22;;;;;;;5.95;3.92;;;33.20;1.00;;;;;;5034172;28;20204;-75
2023/08/16 09:13:48;;;;;;;6.43;4.00;;;32.80;1.00;;;;;;5031848;28;20682;-76
2023/08/16 09:16:14;;;;;;;6.15;3.92;;;32.20;1.00;;;;;;5036171;28;20182;-75
2023/08/16 09:18:48;;;;;;;8.68;3.72;;;32.10;1.00;;;;;;5034573;28;20640;-77
2023/08/16 09:21:24;;;;;;;9.90;3.95;;;32.00;1.00;;;;;;5040037;28;20287;-77
2023/08/16 09:23:57;;;;;;;6.13;3.85;;;32.10;1.00;;;;;;5033435;28;20323;-77
2023/08/16 09:26:23;;;;;;;5.45;4.18;;;32.10;1.00;;;;;;5034141;28;20181;-76
2023/08/16 09:28:58;;;;;;;5.15;3.80;;;31.70;1.00;;;;;;5031230;28;20620;-77
2023/08/16 09:31:31;;;;;;;8.73;4.15;;;31.50;1.00;;;;;;5030450;28;20621;-77
2023/08/16 09:34:00;;;;;;;6.53;4.13;;;31.50;1.00;;;;;;5035730;28;20181;-80
2023/08/16 09:36:30;;;;;;;6.22;3.90;;;31.50;1.00;;;;;;5032295;28;20173;-76
2023/08/16 09:39:08;;;;;;;6.30;4.10;;;31.30;1.00;;;;;;5031159;28;20178;-76
2023/08/16 09:41:34;;;;;;;6.45;4.05;;;31.20;1.00;;;;;;5029794;28;20189;-76
2023/08/16 09:44:04;;;;;;;6.88;3.90;;;31.00;1.00;;;;;;5028419;28;20186;-76
2023/08/16 09:46:30;;;;;;;8.07;4.03;;;31.20;1.00;;;;;;5025897;28;20236;-76
2023/08/16 09:49:06;;;;;;;10.13;4.18;;;31.40;1.00;;;;;;5030376;28;20185;-75
2023/08/16 09:51:33;;;;;;;6.40;4.32;;;31.80;1.00;;;;;;5023047;28;20209;-78
2023/08/16 09:54:00;;;;;;;6.45;4.15;;;32.00;1.00;;;;;;5026763;28;20169;-75
2023/08/16 09:56:27;;;;;;;5.55;4.15;;;32.50;1.00;;;;;;5026241;28;20178;-76
2023/08/16 09:58:53;;;;;;;6.90;3.92;;;33.20;1.00;;;;;;5026234;28;20226;-75
2023/08/16 10:01:19;;;;;;;6.35;3.95;;;34.00;1.00;;;;;;5028770;28;20197;-76
2023/08/16 10:03:50;;;;;;;10.85;4.03;;;34.30;1.00;;;;;;5021880;28;20184;-77
2023/08/16 10:06:15;;;;;;;5.82;3.75;;;35.20;1.00;;;;;;5024374;28;20219;-76
2023/08/16 10:08:41;;;;;;;9.35;3.97;;;35.20;1.00;;;;;;5029566;28;20209;-75
2023/08/16 10:11:07;;;;;;;5.47;3.72;;;35.30;1.00;;;;;;5030511;28;20193;-76
2023/08/16 10:13:34;;;;;;;5.63;4.05;;;35.70;1.00;;;;;;5032612;28;20243;-77
2023/08/16 10:16:00;;;;;;;4.75;3.50;;;35.90;1.00;;;;;;5033523;28;20200;-75
2023/08/16 10:18:27;;;;;;;5.30;3.92;;;36.20;1.00;;;;;;5029838;28;20550;-82
2023/08/16 10:20:59;;;;;;;4.88;3.70;;;35.90;1.00;;;;;;5037074;28;20613;-76
2023/08/16 10:23:26;;;;;;;6.57;3.70;;;36.20;1.00;;;;;;5032039;28;20208;-76
2023/08/16 10:25:53;;;;;;;4.57;3.15;;;36.30;1.00;;;;;;5031397;28;20686;-76
2023/08/16 10:28:24;;;;;;;4.97;3.83;;;35.70;1.00;;;;;;5031356;28;20196;-76
2023/08/16 10:30:53;;;;;;;14.07;7.40;;;35.40;1.00;;;;;;5030477;28;20679;-75
2023/08/16 10:33:31;;;;;;;11.77;8.02;;;35.10;1.00;;;;;;5031483;28;20243;-76
2023/08/16 10:35:57;;;;;;;6.38;4.15;;;34.80;1.00;;;;;;5029547;28;20201;-76
2023/08/16 10:38:34;;;;;;;8.15;5.28;;;34.30;1.00;;;;;;5031177;28;20678;-75
2023/08/16 10:41:00;;;;;;;5.00;4.28;;;33.90;1.00;;;;;;5035749;28;20286;-76
2023/08/16 10:43:34;;;;;;;7.00;4.00;;;34.50;1.00;;;;;;5029834;28;20215;-76
2023/08/16 10:46:00;;;;;;;5.85;3.50;;;36.40;1.00;;;;;;5026238;28;20200;-76
2023/08/16 10:48:36;;;;;;;6.78;3.53;;;38.00;1.00;;;;;;5022510;28;20180;-76
2023/08/16 10:51:07;;;;;;;7.00;3.53;;;39.20;1.00;;;;;;5030064;28;20216;-76
2023/08/16 10:53:34;;;;;;;6.32;3.53;;;39.80;1.00;;;;;;5031358;28;20232;-77
2023/08/16 10:56:07;;;;;;;5.15;3.40;;;40.30;1.00;;;;;;5030113;28;20291;-77
2023/08/16 10:58:45;;;;;;;4.85;2.92;;;41.30;1.00;;;;;;5025346;28;20177;-79
2023/08/16 11:01:11;;;;;;;4.35;3.20;;;42.50;1.00;;;;;;5016370;28;20300;-76
2023/08/16 11:03:39;;;;;;;6.70;3.30;;;43.40;1.00;;;;;;5020219;28;20193;-78
2023/08/16 11:06:09;;;;;;;6.20;3.10;;;44.10;1.00;;;;;;5022620;28;20547;-77
2023/08/16 11:08:38;;;;;;;4.35;3.10;;;44.50;1.00;;;;;;5022674;28;20219;-76
2023/08/16 11:11:03;;;;;;;3.88;3.17;;;45.10;1.00;;;;;;5024172;28;20205;-78
2023/08/16 11:13:29;;;;;;;5.18;2.80;;;44.70;1.00;;;;;;5028068;28;20212;-76
2023/08/16 11:15:55;;;;;;;4.03;3.00;;;45.30;1.00;;;;;;5033476;28;20209;-76
2023/08/16 11:18:31;;;;;;;4.90;2.38;;;45.70;1.00;;;;;;5026388;28;20178;-77
2023/08/16 11:21:00;;;;;;;5.03;2.90;;;45.60;1.00;;;;;;5018755;28;20224;-76
2023/08/16 11:23:34;;;;;;;3.65;3.00;;;45.80;1.00;;;;;;5028435;28;20281;-79
2023/08/16 11:26:01;;;;;;;3.92;2.50;;;46.10;1.00;;;;;;5023639;28;20188;-76
2023/08/16 11:28:28;;;;;;;4.85;3.10;;;46.20;1.00;;;;;;5041038;28;20277;-78
2023/08/16 11:31:01;;;;;;;3.90;2.90;;;46.60;1.00;;;;;;5024969;28;20319;-74
2023/08/16 11:33:40;;;;;;;4.85;2.50;;;46.60;1.00;;;;;;5016612;28;20265;-76
2023/08/16 11:36:08;;;;;;;4.20;3.08;;;46.50;1.00;;;;;;5024409;28;20196;-74
2023/08/16 11:38:34;;;;;;;6.32;3.10;;;46.30;1.00;;;;;;5024996;28;20208;-75
2023/08/16 11:41:01;;;;;;;4.32;2.90;;;45.30;1.00;;;;;;5025786;28;20236;-76
2023/08/16 11:43:31;;;;;;;5.13;3.20;;;45.30;1.00;;;;;;5022938;28;20694;-77
2023/08/16 11:45:57;;;;;;;4.57;2.47;;;46.00;1.00;;;;;;5025950;28;20193;-75
2023/08/16 11:48:25;;;;;;;6.25;2.70;;;46.40;1.00;;;;;;5027801;28;20231;-78
2023/08/16 11:50:51;;;;;;;3.90;2.90;;;46.30;1.00;;;;;;5026818;28;20215;-77
2023/08/16 11:53:18;;;;;;;5.95;2.85;;;45.90;1.00;;;;;;5025205;28;20269;-78
2023/08/16 11:55:56;;;;;;;4.07;3.13;;;45.70;1.00;;;;;;5027173;28;20205;-77
2023/08/16 11:58:22;;;;;;;10.20;3.42;;;45.30;1.00;;;;;;5028756;28;20189;-77
2023/08/16 12:00:48;;;;;;;5.05;3.05;;;45.10;1.00;;;;;;5027093;28;20346;-76
2023/08/16 12:03:17;;;;;;;6.82;2.85;;;45.70;1.00;;;;;;5023340;28;20280;-77
2023/08/16 12:05:45;;;;;;;3.85;2.65;;;;;;;;;;5026459;28;20675;-77
2023/08/16 12:08:12;;;;;;;3.83;2.80;;;45.70;1.00;;;;;;5023520;28;20773;-77
2023/08/16 12:10:39;;;;;;;6.18;3.17;;;46.00;1.00;;;;;;5022250;28;20523;-77
2023/08/16 12:13:14;;;;;;;5.65;3.00;;;45.70;1.00;;;;;;5022785;28;20192;-78
2023/08/16 12:15:41;;;;;;;4.68;3.40;;;45.20;1.00;;;;;;5025564;28;20529;-77
2023/08/16 12:18:06;;;;;;;5.82;3.00;;;44.70;1.00;;;;;;5025181;28;20193;-77
2023/08/16 12:20:32;;;;;;;6.03;3.10;;;44.80;1.00;;;;;;5024510;28;20251;-78
2023/08/16 12:22:58;;;;;;;4.57;3.13;;;45.40;1.00;;;;;;5029160;28;20181;-76
2023/08/16 12:25:24;;;;;;;7.50;3.28;;;45.90;1.00;;;;;;5024850;28;20181;-77
2023/08/16 12:27:50;;;;;;;4.78;2.90;;;45.20;1.00;;;;;;5027377;28;20200;-75
2023/08/16 12:30:16;;;;;;;3.83;3.17;;;45.50;1.00;;;;;;5025856;28;20204;-76
2023/08/16 12:32:41;;;;;;;5.53;3.30;;;45.30;1.00;;;;;;5023029;28;20196;-74
2023/08/16 12:35:08;;;;;;;5.05;3.30;;;44.90;1.00;;;;;;5022931;28;20217;-76
2023/08/16 12:37:33;;;;;;;4.95;3.15;;;45.20;1.00;;;;;;5024333;28;20177;-76
2023/08/16 12:39:59;;;;;;;3.63;2.97;;;;;;;;;;5022333;28;20197;-78
2023/08/16 12:42:25;;;;;;;4.88;3.40;;;46.20;1.00;;;;;;5026598;28;20196;-77
2023/08/16 12:44:50;;;;;;;6.55;3.40;;;46.10;1.00;;;;;;5026094;28;20196;-78
2023/08/16 12:47:16;;;;;;;6.68;3.30;;;46.00;1.00;;;;;;5022749;28;20185;-77
2023/08/16 12:49:41;;;;;;;4.78;3.30;;;45.00;1.00;;;;;;5024654;28;20268;-77
2023/08/16 12:52:07;;;;;;;5.18;3.35;;;44.90;1.00;;;;;;5022560;28;20272;-76